sensor_id;sensor_type;location;lat;lon;timestamp;pressure;altitude;pressure_sealevel;temperature;humidity
21449;BME280;10885;52.830;13.788;2024-02-21T06:32:02;101210.25;;;7.82;93.58
21449;BME280;10885;52.830;13.788;2024-02-21T06:37:05;101223.63;;;7.79;94.02
21449;BME280;10885;52.830;13.788;2024-02-21T06:42:07;101215.09;;;7.79;93.95
21449;BME280;10885;52.830;13.788;2024-02-21T06:47:10;101210.88;;;7.79;94.15
21449;BME280;10885;52.830;13.788;2024-02-21T06:52:13;101209.50;;;7.83;94.11
21449;BME280;10885;52.830;13.788;2024-02-21T06:57:18;101228.22;;;7.83;94.09
21449;BME280;10885;52.830;13.788;2024-02-21T07:02:21;101214.81;;;7.86;93.58
21449;BME280;10885;52.830;13.788;2024-02-21T07:07:24;101199.66;;;7.87;93.80
21449;BME280;10885;52.830;13.788;2024-02-21T07:12:27;101202.47;;;7.90;93.68
21449;BME280;10885;52.830;13.788;2024-02-21T07:17:29;101189.84;;;7.92;93.34
21449;BME280;10885;52.830;13.788;2024-02-21T07:22:32;101193.41;;;7.94;93.39
21449;BME280;10885;52.830;13.788;2024-02-21T07:27:34;101199.63;;;7.97;93.03
21449;BME280;10885;52.830;13.788;2024-02-21T07:32:37;101202.06;;;8.06;93.27
21449;BME280;10885;52.830;13.788;2024-02-21T07:37:39;101188.00;;;8.11;92.75
21449;BME280;10885;52.830;13.788;2024-02-21T07:42:43;101196.44;;;8.10;92.79
21449;BME280;10885;52.830;13.788;2024-02-21T07:47:51;101189.81;;;8.12;94.01
21449;BME280;10885;52.830;13.788;2024-02-21T07:52:54;101183.94;;;8.13;93.76
21449;BME280;10885;52.830;13.788;2024-02-21T07:57:56;101186.47;;;8.13;93.70
21449;BME280;10885;52.830;13.788;2024-02-21T08:02:59;101185.44;;;8.22;93.69
21449;BME280;10885;52.830;13.788;2024-02-21T08:08:03;101185.25;;;8.41;93.41
21449;BME280;10885;52.830;13.788;2024-02-21T08:13:06;101168.97;;;8.61;92.57
21449;BME280;10885;52.830;13.788;2024-02-21T08:18:08;101179.41;;;8.64;91.36
21449;BME280;10885;52.830;13.788;2024-02-21T08:23:11;101181.69;;;8.71;91.74
21449;BME280;10885;52.830;13.788;2024-02-21T08:28:14;101174.75;;;8.80;91.20
21449;BME280;10885;52.830;13.788;2024-02-21T08:33:17;101174.69;;;8.90;90.98
21449;BME280;10885;52.830;13.788;2024-02-21T08:38:19;101179.72;;;9.01;90.29
21449;BME280;10885;52.830;13.788;2024-02-21T08:43:22;101186.84;;;9.05;90.21
21449;BME280;10885;52.830;13.788;2024-02-21T08:48:25;101177.34;;;9.14;89.57
21449;BME280;10885;52.830;13.788;2024-02-21T08:53:28;101177.81;;;9.20;89.81
21449;BME280;10885;52.830;13.788;2024-02-21T08:58:31;101166.25;;;9.25;88.94
21449;BME280;10885;52.830;13.788;2024-02-21T09:03:33;101185.47;;;9.20;89.23
21449;BME280;10885;52.830;13.788;2024-02-21T09:08:36;101171.75;;;9.30;88.51
21449;BME280;10885;52.830;13.788;2024-02-21T09:13:38;101159.75;;;9.41;88.83
21449;BME280;10885;52.830;13.788;2024-02-21T09:18:41;101169.44;;;9.79;87.75
21449;BME280;10885;52.830;13.788;2024-02-21T09:23:45;101168.88;;;9.94;85.64
21449;BME280;10885;52.830;13.788;2024-02-21T09:28:47;101166.44;;;9.96;86.13
21449;BME280;10885;52.830;13.788;2024-02-21T09:33:50;101145.75;;;10.05;86.15
21449;BME280;10885;52.830;13.788;2024-02-21T09:38:53;101145.63;;;10.27;85.17
21449;BME280;10885;52.830;13.788;2024-02-21T09:43:57;101150.81;;;10.64;82.98
21449;BME280;10885;52.830;13.788;2024-02-21T09:49:32;101142.78;;;10.96;83.76
21449;BME280;10885;52.830;13.788;2024-02-21T09:54:41;101135.50;;;10.89;82.47
21449;BME280;10885;52.830;13.788;2024-02-21T09:59:47;101139.31;;;11.07;82.66
21449;BME280;10885;52.830;13.788;2024-02-21T10:04:52;101132.44;;;10.94;81.55
21449;BME280;10885;52.830;13.788;2024-02-21T10:10:04;101136.94;;;10.85;82.68
21449;BME280;10885;52.830;13.788;2024-02-21T10:15:07;101135.56;;;10.90;83.52
21449;BME280;10885;52.830;13.788;2024-02-21T10:20:11;101134.88;;;11.05;82.19
21449;BME280;10885;52.830;13.788;2024-02-21T10:25:14;101134.09;;;10.94;81.52
21449;BME280;10885;52.830;13.788;2024-02-21T10:30:17;101128.06;;;10.68;83.04
21449;BME280;10885;52.830;13.788;2024-02-21T10:35:30;101127.94;;;10.79;84.37
21449;BME280;10885;52.830;13.788;2024-02-21T10:40:33;101129.25;;;10.85;83.41
21449;BME280;10885;52.830;13.788;2024-02-21T10:45:36;101126.59;;;11.09;82.10
21449;BME280;10885;52.830;13.788;2024-02-21T10:51:02;101114.06;;;11.77;82.80
21449;BME280;10885;52.830;13.788;2024-02-21T10:56:36;101108.72;;;11.87;82.17
21449;BME280;10885;52.830;13.788;2024-02-21T11:01:40;101110.56;;;11.50;80.34
21449;BME280;10885;52.830;13.788;2024-02-21T11:06:43;101102.09;;;11.51;79.76
21449;BME280;10885;52.830;13.788;2024-02-21T11:11:46;101105.44;;;11.50;80.85
21449;BME280;10885;52.830;13.788;2024-02-21T11:16:49;101103.69;;;11.49;79.53
21449;BME280;10885;52.830;13.788;2024-02-21T11:21:53;101096.53;;;11.31;80.64
21449;BME280;10885;52.830;13.788;2024-02-21T11:27:07;101087.03;;;11.17;81.35
21449;BME280;10885;52.830;13.788;2024-02-21T11:32:10;101072.63;;;11.19;81.38
21449;BME280;10885;52.830;13.788;2024-02-21T11:37:14;101070.66;;;11.28;80.14
21449;BME280;10885;52.830;13.788;2024-02-21T11:42:20;101068.75;;;11.64;79.47
21449;BME280;10885;52.830;13.788;2024-02-21T11:47:23;101077.63;;;12.23;77.82
21449;BME280;10885;52.830;13.788;2024-02-21T11:52:26;101067.00;;;12.73;76.15
21449;BME280;10885;52.830;13.788;2024-02-21T11:57:30;101052.47;;;12.73;74.96
21449;BME280;10885;52.830;13.788;2024-02-21T12:02:32;101045.72;;;12.61;75.69
21449;BME280;10885;52.830;13.788;2024-02-21T12:07:38;101042.84;;;12.84;75.88
21449;BME280;10885;52.830;13.788;2024-02-21T12:12:44;101035.16;;;12.84;74.92
21449;BME280;10885;52.830;13.788;2024-02-21T12:17:46;101033.22;;;13.54;73.80
21449;BME280;10885;52.830;13.788;2024-02-21T12:22:49;101030.69;;;13.86;71.61
21449;BME280;10885;52.830;13.788;2024-02-21T12:27:52;101015.28;;;14.19;72.02
21449;BME280;10885;52.830;13.788;2024-02-21T12:32:55;101013.03;;;14.40;69.45
21449;BME280;10885;52.830;13.788;2024-02-21T12:37:58;101011.84;;;14.84;69.95
21449;BME280;10885;52.830;13.788;2024-02-21T12:43:02;100990.22;;;15.32;69.07
21449;BME280;10885;52.830;13.788;2024-02-21T12:48:06;100980.81;;;15.69;67.44
21449;BME280;10885;52.830;13.788;2024-02-21T12:53:08;100982.16;;;15.08;68.52
21449;BME280;10885;52.830;13.788;2024-02-21T12:58:24;100996.75;;;14.41;67.55
21449;BME280;10885;52.830;13.788;2024-02-21T13:03:26;100977.59;;;13.71;71.22
21449;BME280;10885;52.830;13.788;2024-02-21T13:08:34;100967.66;;;13.78;72.06
21449;BME280;10885;52.830;13.788;2024-02-21T13:13:37;100957.50;;;13.81;72.47
21449;BME280;10885;52.830;13.788;2024-02-21T13:18:40;100955.78;;;14.12;70.87
21449;BME280;10885;52.830;13.788;2024-02-21T13:23:45;100949.38;;;14.37;69.55
21449;BME280;10885;52.830;13.788;2024-02-21T13:28:48;100949.88;;;14.81;66.96
21449;BME280;10885;52.830;13.788;2024-02-21T13:33:51;100945.31;;;14.59;68.13
21449;BME280;10885;52.830;13.788;2024-02-21T13:38:54;100934.50;;;14.31;68.75
21449;BME280;10885;52.830;13.788;2024-02-21T13:43:57;100920.41;;;14.41;68.64
21449;BME280;10885;52.830;13.788;2024-02-21T13:49:04;100920.41;;;14.41;68.75
21449;BME280;10885;52.830;13.788;2024-02-21T13:54:08;100911.94;;;14.27;68.86
21449;BME280;10885;52.830;13.788;2024-02-21T13:59:12;100912.25;;;14.01;69.26
21449;BME280;10885;52.830;13.788;2024-02-21T14:04:18;100916.16;;;13.61;69.13
21449;BME280;10885;52.830;13.788;2024-02-21T14:09:22;100908.81;;;13.21;71.44
21449;BME280;10885;52.830;13.788;2024-02-21T14:14:25;100911.56;;;13.09;72.19
21449;BME280;10885;52.830;13.788;2024-02-21T14:19:28;100902.66;;;13.03;71.98
21449;BME280;10885;52.830;13.788;2024-02-21T14:24:30;100905.56;;;12.64;73.08
21449;BME280;10885;52.830;13.788;2024-02-21T14:29:34;100892.44;;;12.45;74.47
21449;BME280;10885;52.830;13.788;2024-02-21T14:34:36;100892.00;;;12.22;74.24
21449;BME280;10885;52.830;13.788;2024-02-21T14:39:39;100900.81;;;12.12;74.46
21449;BME280;10885;52.830;13.788;2024-02-21T14:44:42;100894.75;;;11.97;74.52
21449;BME280;10885;52.830;13.788;2024-02-21T14:49:46;100884.50;;;11.97;74.42
21449;BME280;10885;52.830;13.788;2024-02-21T14:54:48;100878.47;;;11.97;74.30
21449;BME280;10885;52.830;13.788;2024-02-21T14:59:53;100861.97;;;12.06;74.19
21449;BME280;10885;52.830;13.788;2024-02-21T15:04:58;100859.09;;;12.02;74.24
21449;BME280;10885;52.830;13.788;2024-02-21T15:10:02;100846.13;;;11.99;74.35
21449;BME280;10885;52.830;13.788;2024-02-21T15:15:05;100839.72;;;11.92;74.66
21449;BME280;10885;52.830;13.788;2024-02-21T15:20:08;100837.28;;;11.80;74.92
21449;BME280;10885;52.830;13.788;2024-02-21T15:25:11;100821.38;;;11.71;75.00
21449;BME280;10885;52.830;13.788;2024-02-21T15:30:18;100824.19;;;11.61;75.62
21449;BME280;10885;52.830;13.788;2024-02-21T15:35:21;100818.47;;;11.51;75.81
21449;BME280;10885;52.830;13.788;2024-02-21T15:40:23;100804.91;;;11.39;76.17
21449;BME280;10885;52.830;13.788;2024-02-21T15:45:26;100799.78;;;11.26;76.75
21449;BME280;10885;52.830;13.788;2024-02-21T15:50:29;100789.56;;;11.12;77.34
21449;BME280;10885;52.830;13.788;2024-02-21T15:55:32;100779.63;;;11.04;77.54
21449;BME280;10885;52.830;13.788;2024-02-21T16:00:34;100759.66;;;10.98;78.27
21449;BME280;10885;52.830;13.788;2024-02-21T16:05:37;100754.25;;;10.93;78.50
21449;BME280;10885;52.830;13.788;2024-02-21T16:10:39;100748.44;;;10.83;78.51
21449;BME280;10885;52.830;13.788;2024-02-21T16:15:42;100728.00;;;10.69;78.87
21449;BME280;10885;52.830;13.788;2024-02-21T16:20:45;100721.59;;;10.63;79.52
21449;BME280;10885;52.830;13.788;2024-02-21T16:25:48;100727.22;;;10.57;79.86
21449;BME280;10885;52.830;13.788;2024-02-21T16:30:51;100720.63;;;10.47;79.65
21449;BME280;10885;52.830;13.788;2024-02-21T16:35:55;100717.47;;;10.38;80.39
21449;BME280;10885;52.830;13.788;2024-02-21T16:40:58;100711.16;;;10.33;80.29
21449;BME280;10885;52.830;13.788;2024-02-21T16:46:00;100703.09;;;10.27;80.41
21449;BME280;10885;52.830;13.788;2024-02-21T16:51:03;100702.81;;;10.22;80.26
21449;BME280;10885;52.830;13.788;2024-02-21T16:56:07;100699.88;;;10.16;80.79
21449;BME280;10885;52.830;13.788;2024-02-21T17:01:10;100710.47;;;10.09;80.85
21449;BME280;10885;52.830;13.788;2024-02-21T17:06:15;100705.06;;;10.04;79.67
21449;BME280;10885;52.830;13.788;2024-02-21T17:11:20;100711.13;;;9.93;80.23
21449;BME280;10885;52.830;13.788;2024-02-21T17:16:23;100710.22;;;9.79;80.03
21449;BME280;10885;52.830;13.788;2024-02-21T17:21:26;100702.63;;;9.67;80.09
21449;BME280;10885;52.830;13.788;2024-02-21T17:26:32;100713.03;;;9.57;80.54
21449;BME280;10885;52.830;13.788;2024-02-21T17:31:35;100704.19;;;9.52;80.00
21449;BME280;10885;52.830;13.788;2024-02-21T17:36:37;100698.84;;;9.49;80.44
21449;BME280;10885;52.830;13.788;2024-02-21T17:41:40;100691.00;;;9.46;79.86
21449;BME280;10885;52.830;13.788;2024-02-21T17:46:42;100673.22;;;9.35;79.90
21449;BME280;10885;52.830;13.788;2024-02-21T17:51:45;100664.44;;;9.19;80.25
21449;BME280;10885;52.830;13.788;2024-02-21T17:56:48;100663.72;;;9.08;80.53
21449;BME280;10885;52.830;13.788;2024-02-21T18:01:51;100653.72;;;8.99;80.39
21449;BME280;10885;52.830;13.788;2024-02-21T18:06:53;100647.34;;;8.92;80.29
21449;BME280;10885;52.830;13.788;2024-02-21T18:11:58;100651.78;;;8.83;79.90
21449;BME280;10885;52.830;13.788;2024-02-21T18:17:00;100655.28;;;8.72;79.73
21449;BME280;10885;52.830;13.788;2024-02-21T18:22:03;100641.56;;;8.58;80.06
21449;BME280;10885;52.830;13.788;2024-02-21T18:27:07;100628.25;;;8.50;79.96
21449;BME280;10885;52.830;13.788;2024-02-21T18:32:09;100620.94;;;8.43;80.24
21449;BME280;10885;52.830;13.788;2024-02-21T18:37:12;100596.47;;;8.33;80.45
21449;BME280;10885;52.830;13.788;2024-02-21T18:42:18;100594.03;;;8.23;80.29
21449;BME280;10885;52.830;13.788;2024-02-21T18:47:20;100589.94;;;8.25;80.47
21449;BME280;10885;52.830;13.788;2024-02-21T18:52:23;100577.84;;;8.34;80.08
21449;BME280;10885;52.830;13.788;2024-02-21T18:57:26;100559.34;;;8.25;79.55
21449;BME280;10885;52.830;13.788;2024-02-21T19:02:28;100550.72;;;8.11;79.93
21449;BME280;10885;52.830;13.788;2024-02-21T19:07:31;100553.28;;;8.11;80.43
21449;BME280;10885;52.830;13.788;2024-02-21T19:12:36;100539.44;;;8.08;80.52
21449;BME280;10885;52.830;13.788;2024-02-21T19:17:39;100517.84;;;8.03;80.63
21449;BME280;10885;52.830;13.788;2024-02-21T19:22:43;100506.13;;;7.93;80.63
21449;BME280;10885;52.830;13.788;2024-02-21T19:27:49;100499.69;;;7.86;80.62
21449;BME280;10885;52.830;13.788;2024-02-21T19:32:52;100478.09;;;7.81;80.75
21449;BME280;10885;52.830;13.788;2024-02-21T19:37:56;100473.47;;;7.75;80.72
21449;BME280;10885;52.830;13.788;2024-02-21T19:43:05;100462.72;;;7.68;81.14
21449;BME280;10885;52.830;13.788;2024-02-21T19:48:07;100448.78;;;7.63;81.18
21449;BME280;10885;52.830;13.788;2024-02-21T19:53:10;100446.56;;;7.55;81.37
21449;BME280;10885;52.830;13.788;2024-02-21T19:58:13;100435.66;;;7.45;81.70
21449;BME280;10885;52.830;13.788;2024-02-21T20:03:16;100426.22;;;7.44;81.91
21449;BME280;10885;52.830;13.788;2024-02-21T20:08:18;100415.16;;;7.43;82.19
21449;BME280;10885;52.830;13.788;2024-02-21T20:13:21;100427.88;;;7.43;82.09
21449;BME280;10885;52.830;13.788;2024-02-21T20:18:24;100412.25;;;7.38;82.57
21449;BME280;10885;52.830;13.788;2024-02-21T20:23:28;100412.06;;;7.35;82.86
21449;BME280;10885;52.830;13.788;2024-02-21T20:28:30;100413.28;;;7.41;83.12
21449;BME280;10885;52.830;13.788;2024-02-21T20:33:34;100377.97;;;7.45;82.85
21449;BME280;10885;52.830;13.788;2024-02-21T20:38:36;100369.06;;;7.52;82.80
21449;BME280;10885;52.830;13.788;2024-02-21T20:43:39;100362.44;;;7.54;83.20
21449;BME280;10885;52.830;13.788;2024-02-21T20:48:42;100349.34;;;7.61;81.77
21449;BME280;10885;52.830;13.788;2024-02-21T20:53:46;100339.59;;;7.67;82.41
21449;BME280;10885;52.830;13.788;2024-02-21T20:58:49;100337.22;;;7.70;82.06
21449;BME280;10885;52.830;13.788;2024-02-21T21:03:51;100329.81;;;7.73;81.99
21449;BME280;10885;52.830;13.788;2024-02-21T21:08:54;100322.41;;;7.76;81.73
21449;BME280;10885;52.830;13.788;2024-02-21T21:13:56;100327.50;;;7.76;81.68
21449;BME280;10885;52.830;13.788;2024-02-21T21:18:59;100315.75;;;7.79;81.63
21449;BME280;10885;52.830;13.788;2024-02-21T21:24:03;100316.72;;;7.81;81.60
21449;BME280;10885;52.830;13.788;2024-02-21T21:29:05;100303.78;;;7.77;81.77
21449;BME280;10885;52.830;13.788;2024-02-21T21:34:09;100301.78;;;7.73;81.70
